| time (UTC) | temp C | wind direction | speed KPH | gust KPH | rain 1hr cm | rain 24hr cm | rain mn cm | humidity % | barometer mb |
| 20260509063016 | 11 | 0.0 | 0.0 | 0.00 | 0.00 | 0.00 | 50 | 904.9 | |
| 20260509062015 | 11 | 0.0 | 0.0 | 0.00 | 0.00 | 0.00 | 48 | 905.0 | |
| 20260509061015 | 11 | 0.0 | 0.0 | 0.00 | 0.00 | 0.00 | 47 | 905.0 | |
| 20260509060015 | 12 | 0.0 | 0.0 | 0.00 | 0.00 | 0.00 | 46 | 905.0 | |
| 20260509055016 | 12 | 0.0 | 0.0 | 0.00 | 0.00 | 0.00 | 45 | 905.0 | |
| 20260509054015 | 12 | 0.0 | 0.0 | 0.00 | 0.00 | 0.00 | 43 | 905.0 | |
| 20260509053016 | 13 | 0.0 | 0.0 | 0.00 | 0.00 | 0.00 | 43 | 905.0 | |
| 20260509052017 | 13 | 0.0 | 0.0 | 0.00 | 0.00 | 0.00 | 41 | 905.0 | |
| 20260509051017 | 13 | 0.0 | 1.6 | 0.00 | 0.00 | 0.00 | 40 | 905.0 | |
| 20260509050017 | 14 | 0.0 | 0.0 | 0.00 | 0.00 | 0.00 | 40 | 904.9 | |
| 20260509045016 | 15 | 0.0 | 0.0 | 0.00 | 0.00 | 0.00 | 39 | 904.9 | |
| 20260509044016 | 15 | 0.0 | 1.6 | 0.00 | 0.00 | 0.00 | 38 | 904.9 | |
| 20260509043037 | 15 | 0.0 | 1.6 | 0.00 | 0.00 | 0.00 | 37 | 904.9 | |
| 20260509042016 | 16 | 0.0 | 3.2 | 0.00 | 0.00 | 0.00 | 36 | 904.9 | |
| 20260509041016 | 16 | 90 | 1.6 | 4.8 | 0.00 | 0.00 | 0.00 | 34 | 904.9 |
| 20260509040016 | 16 | 90 | 1.6 | 4.8 | 0.00 | 0.00 | 0.00 | 34 | 904.9 |
| 20260509035037 | 16 | 68 | 3.2 | 9.7 | 0.00 | 0.00 | 0.00 | 33 | 904.9 |
| 20260509034016 | 16 | 90 | 3.2 | 11.3 | 0.00 | 0.00 | 0.00 | 33 | 904.9 |
| 20260509033017 | 17 | 90 | 6.4 | 12.9 | 0.00 | 0.00 | 0.00 | 32 | 904.9 |
| 20260509032016 | 17 | 113 | 3.2 | 6.4 | 0.00 | 0.00 | 0.00 | 32 | 904.9 |
| 20260509031016 | 17 | 113 | 3.2 | 9.7 | 0.00 | 0.00 | 0.00 | 32 | 905.0 |
| 20260509030016 | 17 | 90 | 4.8 | 14.5 | 0.00 | 0.00 | 0.00 | 31 | 904.9 |
| 20260509025037 | 18 | 90 | 6.4 | 12.9 | 0.00 | 0.00 | 0.00 | 31 | 904.9 |
| 20260509024016 | 18 | 90 | 6.4 | 16.1 | 0.00 | 0.00 | 0.00 | 31 | 904.9 |
| 20260509023036 | 18 | 113 | 6.4 | 11.3 | 0.00 | 0.00 | 0.00 | 31 | 904.9 |
| 20260509022016 | 18 | 90 | 6.4 | 16.1 | 0.00 | 0.00 | 0.00 | 30 | 904.9 |
| 20260509021037 | 18 | 90 | 4.8 | 11.3 | 0.00 | 0.00 | 0.00 | 30 | 904.9 |
| 20260509020016 | 18 | 113 | 4.8 | 16.1 | 0.00 | 0.00 | 0.00 | 29 | 904.9 |
| 20260509015016 | 19 | 68 | 3.2 | 11.3 | 0.00 | 0.00 | 0.00 | 28 | 904.9 |
| 20260509014016 | 19 | 23 | 1.6 | 4.8 | 0.00 | 0.00 | 0.00 | 28 | 904.9 |
| 20260509013016 | 20 | 68 | 3.2 | 9.7 | 0.00 | 0.00 | 0.00 | 28 | 904.8 |
| 20260509012016 | 20 | 45 | 3.2 | 12.9 | 0.00 | 0.00 | 0.00 | 26 | 904.8 |
| 20260509011016 | 20 | 90 | 3.2 | 9.7 | 0.00 | 0.00 | 0.00 | 25 | 904.8 |
| 20260509010015 | 20 | 90 | 6.4 | 14.5 | 0.00 | 0.00 | 0.00 | 25 | 904.6 |
| 20260509005016 | 21 | 45 | 4.8 | 9.7 | 0.00 | 0.00 | 0.00 | 25 | 904.7 |
| 20260509004016 | 21 | 68 | 3.2 | 11.3 | 0.00 | 0.00 | 0.00 | 25 | 904.7 |
| 20260509003015 | 21 | 90 | 6.4 | 16.1 | 0.00 | 0.00 | 0.00 | 24 | 904.6 |
| 20260509002015 | 21 | 45 | 4.8 | 14.5 | 0.00 | 0.00 | 0.00 | 24 | 904.6 |
| 20260509001016 | 21 | 23 | 6.4 | 16.1 | 0.00 | 0.00 | 0.00 | 24 | 904.6 |
| 20260509000036 | 22 | 68 | 9.7 | 22.5 | 0.00 | 0.00 | 0.00 | 23 | 904.7 |
| 20260508235015 | 22 | 45 | 6.4 | 16.1 | 0.00 | 0.00 | 0.00 | 24 | 904.7 |
| 20260508234036 | 22 | 68 | 8.0 | 19.3 | 0.00 | 0.00 | 0.00 | 24 | 904.7 |
| 20260508233036 | 23 | 68 | 3.2 | 14.5 | 0.00 | 0.00 | 0.00 | 25 | 904.7 |
| 20260508232017 | 23 | 68 | 4.8 | 14.5 | 0.00 | 0.00 | 0.00 | 24 | 904.8 |
| 20260508231018 | 23 | 68 | 4.8 | 12.9 | 0.00 | 0.00 | 0.00 | 25 | 904.8 |
| 20260508230017 | 23 | 113 | 8.0 | 20.9 | 0.00 | 0.00 | 0.00 | 23 | 904.8 |
| 20260508225017 | 23 | 113 | 6.4 | 14.5 | 0.00 | 0.00 | 0.00 | 24 | 904.8 |
| 20260508224017 | 23 | 113 | 4.8 | 11.3 | 0.00 | 0.00 | 0.00 | 24 | 904.8 |
| 20260508223018 | 23 | 113 | 6.4 | 16.1 | 0.00 | 0.00 | 0.00 | 25 | 904.8 |
| 20260508222017 | 23 | 45 | 3.2 | 14.5 | 0.00 | 0.00 | 0.00 | 25 | 904.8 |
| 20260508221018 | 23 | 338 | 4.8 | 17.7 | 0.00 | 0.00 | 0.00 | 24 | 904.8 |
| 20260508220017 | 23 | 68 | 3.2 | 9.7 | 0.00 | 0.00 | 0.00 | 24 | 904.8 |
| 20260508215017 | 23 | 68 | 4.8 | 8.0 | 0.00 | 0.00 | 0.00 | 24 | 904.8 |
| 20260508214017 | 22 | 68 | 8.0 | 22.5 | 0.00 | 0.00 | 0.00 | 25 | 904.8 |
| 20260508213037 | 22 | 113 | 3.2 | 6.4 | 0.00 | 0.00 | 0.00 | 25 | 904.8 |
| 20260508212037 | 22 | 68 | 4.8 | 14.5 | 0.00 | 0.00 | 0.00 | 24 | 904.8 |
| 20260508211017 | 23 | 90 | 4.8 | 14.5 | 0.00 | 0.00 | 0.00 | 24 | 904.8 |
| 20260508210016 | 23 | 113 | 3.2 | 11.3 | 0.00 | 0.00 | 0.00 | 23 | 904.8 |
| 20260508205017 | 22 | 90 | 4.8 | 11.3 | 0.00 | 0.00 | 0.00 | 25 | 904.8 |
| 20260508204017 | 22 | 90 | 4.8 | 14.5 | 0.00 | 0.00 | 0.00 | 24 | 904.8 |
| 20260508203016 | 22 | 90 | 4.8 | 11.3 | 0.00 | 0.00 | 0.00 | 27 | 904.8 |
| 20260508202017 | 22 | 90 | 3.2 | 11.3 | 0.00 | 0.00 | 0.00 | 25 | 904.8 |
| 20260508201037 | 21 | 90 | 4.8 | 9.7 | 0.00 | 0.00 | 0.00 | 24 | 904.7 |
| 20260508200016 | 22 | 45 | 4.8 | 14.5 | 0.00 | 0.00 | 0.00 | 25 | 904.8 |
| 20260508195016 | 21 | 45 | 6.4 | 19.3 | 0.00 | 0.00 | 0.00 | 25 | 904.7 |
| 20260508194037 | 22 | 90 | 6.4 | 19.3 | 0.00 | 0.00 | 0.00 | 24 | 904.7 |
| 20260508193036 | 21 | 0 | 6.4 | 17.7 | 0.00 | 0.00 | 0.00 | 24 | 904.7 |
| 20260508192016 | 22 | 90 | 6.4 | 16.1 | 0.00 | 0.00 | 0.00 | 23 | 904.7 |
| 20260508191017 | 22 | 90 | 4.8 | 12.9 | 0.00 | 0.00 | 0.00 | 23 | 904.7 |
| 20260508190016 | 22 | 68 | 4.8 | 11.3 | 0.00 | 0.00 | 0.00 | 25 | 904.7 |
| 20260508185016 | 21 | 68 | 8.0 | 16.1 | 0.00 | 0.00 | 0.00 | 23 | 904.6 |
| 20260508184017 | 22 | 68 | 8.0 | 20.9 | 0.00 | 0.00 | 0.00 | 23 | 904.7 |
| 20260508183016 | 21 | 90 | 6.4 | 22.5 | 0.00 | 0.00 | 0.00 | 23 | 904.6 |
| 20260508182017 | 22 | 68 | 6.4 | 20.9 | 0.00 | 0.00 | 0.00 | 23 | 904.7 |
| 20260508181016 | 22 | 45 | 6.4 | 16.1 | 0.00 | 0.00 | 0.00 | 22 | 904.7 |
| 20260508180016 | 21 | 90 | 6.4 | 12.9 | 0.00 | 0.00 | 0.00 | 23 | 904.6 |
| 20260508175016 | 21 | 90 | 6.4 | 17.7 | 0.00 | 0.00 | 0.00 | 24 | 904.7 |
| 20260508174016 | 21 | 293 | 3.2 | 8.0 | 0.00 | 0.00 | 0.00 | 23 | 904.6 |
| 20260508173016 | 21 | 68 | 6.4 | 12.9 | 0.00 | 0.00 | 0.00 | 23 | 904.6 |
| 20260508172016 | 21 | 315 | 3.2 | 11.3 | 0.00 | 0.00 | 0.00 | 24 | 904.6 |
| 20260508171016 | 20 | 90 | 4.8 | 14.5 | 0.00 | 0.00 | 0.00 | 25 | 904.6 |
| 20260508170017 | 20 | 90 | 3.2 | 12.9 | 0.00 | 0.00 | 0.00 | 27 | 904.6 |
| 20260508165036 | 19 | 68 | 6.4 | 19.3 | 0.00 | 0.00 | 0.00 | 26 | 904.6 |
| 20260508164015 | 18 | 270 | 3.2 | 6.4 | 0.00 | 0.00 | 0.00 | 32 | 904.6 |
| 20260508163016 | 17 | 68 | 3.2 | 8.0 | 0.00 | 0.00 | 0.00 | 33 | 904.5 |
| 20260508162015 | 17 | 90 | 3.2 | 12.9 | 0.00 | 0.00 | 0.00 | 34 | 904.6 |
| 20260508161016 | 17 | 68 | 3.2 | 14.5 | 0.00 | 0.00 | 0.00 | 35 | 904.6 |
| 20260508160035 | 16 | 113 | 3.2 | 20.9 | 0.00 | 0.00 | 0.00 | 35 | 904.5 |
| 20260508155016 | 16 | 338 | 4.8 | 14.5 | 0.00 | 0.00 | 0.00 | 35 | 904.5 |
| 20260508154015 | 16 | 0 | 3.2 | 12.9 | 0.00 | 0.00 | 0.00 | 34 | 904.5 |
| 20260508153015 | 16 | 0 | 3.2 | 9.7 | 0.00 | 0.00 | 0.00 | 35 | 904.5 |
| 20260508152015 | 16 | 68 | 3.2 | 9.7 | 0.00 | 0.00 | 0.00 | 34 | 904.6 |
| 20260508151036 | 16 | 68 | 3.2 | 8.0 | 0.00 | 0.00 | 0.00 | 37 | 904.6 |
| 20260508150017 | 15 | 293 | 3.2 | 11.3 | 0.00 | 0.00 | 0.00 | 37 | 904.6 |
| 20260508145039 | 15 | 248 | 3.2 | 6.4 | 0.00 | 0.00 | 0.00 | 36 | 904.6 |
| 20260508144017 | 14 | 45 | 1.6 | 6.4 | 0.00 | 0.00 | 0.00 | 40 | 904.6 |
| 20260508143017 | 13 | 135 | 1.6 | 8.0 | 0.00 | 0.00 | 0.00 | 39 | 904.6 |
| 20260508142038 | 13 | 23 | 1.6 | 6.4 | 0.00 | 0.00 | 0.00 | 39 | 904.6 |
| 20260508141017 | 13 | 158 | 1.6 | 6.4 | 0.00 | 0.00 | 0.00 | 38 | 904.6 |
| 20260508140017 | 12 | 293 | 3.2 | 4.8 | 0.00 | 0.00 | 0.00 | 39 | 904.6 |
| 20260508135018 | 12 | 68 | 1.6 | 4.8 | 0.00 | 0.00 | 0.00 | 39 | 904.6 |
| 20260508134017 | 12 | 270 | 1.6 | 8.0 | 0.00 | 0.00 | 0.00 | 41 | 904.6 |
| 20260508133017 | 12 | 315 | 3.2 | 11.3 | 0.00 | 0.00 | 0.00 | 42 | |
| 20260508132017 | 11 | 248 | 1.6 | 6.4 | 0.00 | 0.00 | 0.00 | 44 | |
| 20260508131017 | 10 | 23 | 1.6 | 4.8 | 0.00 | 0.00 | 0.00 | 47 | |
| 20260508130017 | 9 | 0 | 1.6 | 4.8 | 0.00 | 0.00 | 0.00 | 49 | |
| 20260508125037 | 8 | 293 | 1.6 | 3.2 | 0.00 | 0.00 | 0.00 | 50 | |
| 20260508124017 | 7 | 180 | 1.6 | 3.2 | 0.00 | 0.00 | 0.00 | 51 | |
| 20260508123016 | 7 | 248 | 1.6 | 4.8 | 0.00 | 0.00 | 0.00 | 54 | |
| 20260508122017 | 6 | 338 | 1.6 | 4.8 | 0.00 | 0.00 | 0.00 | 56 | |
| 20260508121017 | 5 | 0.0 | 3.2 | 0.00 | 0.00 | 0.00 | 59 | ||
| 20260508120038 | 5 | 0.0 | 3.2 | 0.00 | 0.00 | 0.00 | 63 | ||
| 20260508115017 | 5 | 90 | 1.6 | 3.2 | 0.00 | 0.00 | 0.00 | 61 | |
| 20260508114016 | 5 | 0.0 | 0.0 | 0.00 | 0.00 | 0.00 | 60 | ||
| 20260508113017 | 5 | 0.0 | 0.0 | 0.00 | 0.00 | 0.00 | 59 | ||
| 20260508112536 | 5 | 0.0 | 0.0 | 0.00 | 0.00 | 0.00 | 58 | ||
| 20260508111517 | 5 | 0.0 | 1.6 | 0.00 | 0.00 | 0.00 | 57 | ||
| 20260508110516 | 5 | 0 | 1.6 | 4.8 | 0.00 | 0.00 | 0.00 | 57 | |
| 20260508105516 | 6 | 0.0 | 0.0 | 0.00 | 0.00 | 0.00 | 56 | ||
| 20260508104536 | 6 | 0.0 | 3.2 | 0.00 | 0.00 | 0.00 | 55 | ||
| 20260508103517 | 6 | 0.0 | 3.2 | 0.00 | 0.00 | 0.00 | 55 | ||
| 20260508102516 | 6 | 0.0 | 1.6 | 0.00 | 0.00 | 0.00 | 54 | ||
| 20260508101516 | 6 | 0.0 | 0.0 | 0.00 | 0.00 | 0.00 | 53 | ||
| 20260508100516 | 6 | 0.0 | 1.6 | 0.00 | 0.00 | 0.00 | 52 | ||
| 20260508095537 | 6 | 0.0 | 1.6 | 0.00 | 0.00 | 0.00 | 51 | ||
| 20260508094516 | 7 | 0.0 | 1.6 | 0.00 | 0.00 | 0.00 | 50 | ||
| 20260508093516 | 7 | 0.0 | 0.0 | 0.00 | 0.00 | 0.00 | 49 | ||
| 20260508092516 | 7 | 0.0 | 0.0 | 0.00 | 0.00 | 0.00 | 49 | ||
| 20260508091537 | 7 | 0.0 | 3.2 | 0.00 | 0.00 | 0.00 | 50 | ||
| 20260508090516 | 7 | 0.0 | 0.0 | 0.00 | 0.00 | 0.00 | 49 | ||
| 20260508085516 | 7 | 0.0 | 1.6 | 0.00 | 0.00 | 0.00 | 49 | ||
| 20260508084517 | 7 | 270 | 1.6 | 4.8 | 0.00 | 0.00 | 0.00 | 49 | |
| 20260508083515 | 7 | 23 | 1.6 | 3.2 | 0.00 | 0.00 | 0.00 | 49 | |
| 20260508082536 | 7 | 0.0 | 3.2 | 0.00 | 0.00 | 0.00 | 49 | ||
| 20260508081516 | 7 | 90 | 1.6 | 3.2 | 0.00 | 0.00 | 0.00 | 48 | |
| 20260508080536 | 7 | 0.0 | 3.2 | 0.00 | 0.00 | 0.00 | 49 | ||
| 20260508075515 | 7 | 248 | 1.6 | 4.8 | 0.00 | 0.00 | 0.00 | 48 | |
| 20260508074517 | 7 | 0.0 | 3.2 | 0.00 | 0.00 | 0.00 | 49 | ||
| 20260508073515 | 7 | 225 | 1.6 | 6.4 | 0.00 | 0.00 | 0.00 | 49 | |
| 20260508072515 | 6 | 203 | 1.6 | 4.8 | 0.00 | 0.00 | 0.00 | 51 | |
| 20260508071537 | 6 | 0.0 | 3.2 | 0.00 | 0.00 | 0.00 | 53 | ||
| 20260508070515 | 6 | 113 | 1.6 | 4.8 | 0.00 | 0.00 | 0.00 | 54 | |
| 20260508065517 | 6 | 0.0 | 3.2 | 0.00 | 0.00 | 0.00 | 56 | ||
| 20260508064517 | 5 | 0.0 | 0.0 | 0.00 | 0.00 | 0.00 | 57 | ||
| 20260508063518 | 5 | 0.0 | 0.0 | 0.00 | 0.00 | 0.00 | 59 |